Terminal Aerodrome Forecast
Issued by NWS North Platte, NE

Home | Current Version | Previous Version | Text Only | Print | Product List | Glossary On
Versions: 1 2 3 4 5 6 7 8 9 10 11 12 13 14 15 16
000
FTUS43 KLBF 251140
TAFLBF
TAF
KLBF 251140Z 2512/2612 17009KT P6SM FEW200 WS015/21040KT
     FM251300 17010KT P6SM FEW200
     FM251800 15015G21KT P6SM FEW250
     FM260400 12011KT P6SM VCTS BKN200CB WS015/18035KT
     FM260600 36013KT P6SM BKN150=

USA.gov is the U.S. government's official web portal to all federal, state and local government web resources and services.